sensor_id;sensor_type;location;lat;lon;timestamp;temperature;humidity
22908;DHT22;11620;50.050;8.690;2023-03-01T00:00:20;-0.10;99.90
22908;DHT22;11620;50.050;8.690;2023-03-01T00:03:07;-0.20;99.90
22908;DHT22;11620;50.050;8.690;2023-03-01T00:05:53;-0.20;99.90
22908;DHT22;11620;50.050;8.690;2023-03-01T00:08:40;-0.20;99.90
22908;DHT22;11620;50.050;8.690;2023-03-01T00:11:28;-0.30;99.90
22908;DHT22;11620;50.050;8.690;2023-03-01T00:14:15;-0.20;99.90
22908;DHT22;11620;50.050;8.690;2023-03-01T00:17:05;-0.20;99.90
22908;DHT22;11620;50.050;8.690;2023-03-01T00:19:51;-0.30;99.90
22908;DHT22;11620;50.050;8.690;2023-03-01T00:22:37;-0.30;99.90
22908;DHT22;11620;50.050;8.690;2023-03-01T00:25:23;-0.30;99.90
22908;DHT22;11620;50.050;8.690;2023-03-01T00:28:10;-0.20;99.90
22908;DHT22;11620;50.050;8.690;2023-03-01T00:30:56;-0.20;99.90
22908;DHT22;11620;50.050;8.690;2023-03-01T00:33:48;-0.30;99.90
22908;DHT22;11620;50.050;8.690;2023-03-01T00:36:36;-0.30;99.90
22908;DHT22;11620;50.050;8.690;2023-03-01T00:39:23;-0.30;99.90
22908;DHT22;11620;50.050;8.690;2023-03-01T00:42:09;-0.30;99.90
22908;DHT22;11620;50.050;8.690;2023-03-01T00:44:55;-0.40;99.90
22908;DHT22;11620;50.050;8.690;2023-03-01T00:47:42;-0.40;99.90
22908;DHT22;11620;50.050;8.690;2023-03-01T00:50:28;-0.40;99.90
22908;DHT22;11620;50.050;8.690;2023-03-01T00:53:15;-0.40;99.90
22908;DHT22;11620;50.050;8.690;2023-03-01T00:56:02;-0.40;99.90
22908;DHT22;11620;50.050;8.690;2023-03-01T00:58:49;-0.40;99.90
22908;DHT22;11620;50.050;8.690;2023-03-01T01:01:35;-0.40;99.90
22908;DHT22;11620;50.050;8.690;2023-03-01T01:04:22;-0.50;99.90
22908;DHT22;11620;50.050;8.690;2023-03-01T01:07:08;-0.50;99.90
22908;DHT22;11620;50.050;8.690;2023-03-01T01:09:54;-0.50;99.90
22908;DHT22;11620;50.050;8.690;2023-03-01T01:12:41;-0.50;99.90
22908;DHT22;11620;50.050;8.690;2023-03-01T01:15:27;-0.60;99.90
22908;DHT22;11620;50.050;8.690;2023-03-01T01:18:13;-0.60;99.90
22908;DHT22;11620;50.050;8.690;2023-03-01T01:21:09;-0.60;99.90
22908;DHT22;11620;50.050;8.690;2023-03-01T01:23:56;-0.60;99.90
22908;DHT22;11620;50.050;8.690;2023-03-01T01:26:43;-0.60;99.90
22908;DHT22;11620;50.050;8.690;2023-03-01T01:29:29;-0.70;99.90
22908;DHT22;11620;50.050;8.690;2023-03-01T01:32:15;-0.70;99.90
22908;DHT22;11620;50.050;8.690;2023-03-01T01:35:02;-0.70;99.90
22908;DHT22;11620;50.050;8.690;2023-03-01T01:37:48;-0.70;99.90
22908;DHT22;11620;50.050;8.690;2023-03-01T01:40:34;-0.70;99.90
22908;DHT22;11620;50.050;8.690;2023-03-01T01:43:28;-0.70;99.90
22908;DHT22;11620;50.050;8.690;2023-03-01T01:46:32;-0.70;99.90
22908;DHT22;11620;50.050;8.690;2023-03-01T01:49:24;-0.70;99.90
22908;DHT22;11620;50.050;8.690;2023-03-01T01:52:24;-0.70;99.90
22908;DHT22;11620;50.050;8.690;2023-03-01T01:55:15;-0.70;99.90
22908;DHT22;11620;50.050;8.690;2023-03-01T01:58:05;-0.70;99.90
22908;DHT22;11620;50.050;8.690;2023-03-01T02:00:53;-0.70;99.90
22908;DHT22;11620;50.050;8.690;2023-03-01T02:03:41;-0.70;99.90
22908;DHT22;11620;50.050;8.690;2023-03-01T02:06:41;-0.70;99.90
22908;DHT22;11620;50.050;8.690;2023-03-01T02:09:31;-0.70;99.90
22908;DHT22;11620;50.050;8.690;2023-03-01T02:12:21;-0.70;99.90
22908;DHT22;11620;50.050;8.690;2023-03-01T02:15:09;-0.70;99.90
22908;DHT22;11620;50.050;8.690;2023-03-01T02:17:56;-0.70;99.90
22908;DHT22;11620;50.050;8.690;2023-03-01T02:20:59;-0.70;99.90
22908;DHT22;11620;50.050;8.690;2023-03-01T02:23:48;-0.70;99.90
22908;DHT22;11620;50.050;8.690;2023-03-01T02:26:42;-0.70;99.90
22908;DHT22;11620;50.050;8.690;2023-03-01T02:29:31;-0.70;99.90
22908;DHT22;11620;50.050;8.690;2023-03-01T02:32:18;-0.80;99.90
22908;DHT22;11620;50.050;8.690;2023-03-01T02:35:13;-0.80;99.90
22908;DHT22;11620;50.050;8.690;2023-03-01T02:38:01;-0.80;99.90
22908;DHT22;11620;50.050;8.690;2023-03-01T02:40:51;-0.80;99.90
22908;DHT22;11620;50.050;8.690;2023-03-01T02:43:38;-0.80;99.90
22908;DHT22;11620;50.050;8.690;2023-03-01T02:46:26;-0.80;99.90
22908;DHT22;11620;50.050;8.690;2023-03-01T02:49:24;-0.90;99.90
22908;DHT22;11620;50.050;8.690;2023-03-01T02:52:33;-0.80;99.90
22908;DHT22;11620;50.050;8.690;2023-03-01T02:55:22;-0.90;99.90
22908;DHT22;11620;50.050;8.690;2023-03-01T02:58:09;-0.80;99.90
22908;DHT22;11620;50.050;8.690;2023-03-01T03:00:56;-0.90;99.90
22908;DHT22;11620;50.050;8.690;2023-03-01T03:03:43;-0.80;99.90
22908;DHT22;11620;50.050;8.690;2023-03-01T03:06:29;-0.80;99.90
22908;DHT22;11620;50.050;8.690;2023-03-01T03:09:16;-0.80;99.90
22908;DHT22;11620;50.050;8.690;2023-03-01T03:12:03;-0.90;99.90
22908;DHT22;11620;50.050;8.690;2023-03-01T03:14:49;-0.90;99.90
22908;DHT22;11620;50.050;8.690;2023-03-01T03:17:38;-0.90;99.90
22908;DHT22;11620;50.050;8.690;2023-03-01T03:20:27;-0.90;99.90
22908;DHT22;11620;50.050;8.690;2023-03-01T03:23:13;-0.90;99.90
22908;DHT22;11620;50.050;8.690;2023-03-01T03:26:00;-0.90;99.90
22908;DHT22;11620;50.050;8.690;2023-03-01T03:28:46;-0.90;99.90
22908;DHT22;11620;50.050;8.690;2023-03-01T03:31:33;-1.00;99.90
22908;DHT22;11620;50.050;8.690;2023-03-01T03:34:20;-1.00;99.90
22908;DHT22;11620;50.050;8.690;2023-03-01T03:37:06;-0.90;99.90
22908;DHT22;11620;50.050;8.690;2023-03-01T03:40:12;-0.90;99.90
22908;DHT22;11620;50.050;8.690;2023-03-01T03:43:06;-1.00;99.90
22908;DHT22;11620;50.050;8.690;2023-03-01T03:45:53;-1.00;99.90
22908;DHT22;11620;50.050;8.690;2023-03-01T03:48:44;-1.00;99.90
22908;DHT22;11620;50.050;8.690;2023-03-01T03:51:31;-1.00;99.90
22908;DHT22;11620;50.050;8.690;2023-03-01T03:54:17;-1.00;99.90
22908;DHT22;11620;50.050;8.690;2023-03-01T03:57:04;-1.10;99.90
22908;DHT22;11620;50.050;8.690;2023-03-01T03:59:50;-1.20;99.90
22908;DHT22;11620;50.050;8.690;2023-03-01T04:02:36;-1.10;99.90
22908;DHT22;11620;50.050;8.690;2023-03-01T04:05:23;-1.10;99.90
22908;DHT22;11620;50.050;8.690;2023-03-01T04:08:10;-1.10;99.90
22908;DHT22;11620;50.050;8.690;2023-03-01T04:11:00;-1.10;99.90
22908;DHT22;11620;50.050;8.690;2023-03-01T04:14:06;-1.20;99.90
22908;DHT22;11620;50.050;8.690;2023-03-01T04:16:53;-1.20;99.90
22908;DHT22;11620;50.050;8.690;2023-03-01T04:19:39;-1.10;99.90
22908;DHT22;11620;50.050;8.690;2023-03-01T04:22:25;-1.10;99.90
22908;DHT22;11620;50.050;8.690;2023-03-01T04:25:15;-1.10;99.90
22908;DHT22;11620;50.050;8.690;2023-03-01T04:28:01;-1.20;99.90
22908;DHT22;11620;50.050;8.690;2023-03-01T04:30:48;-1.20;99.90
22908;DHT22;11620;50.050;8.690;2023-03-01T04:33:34;-1.30;99.90
22908;DHT22;11620;50.050;8.690;2023-03-01T04:36:25;-1.20;99.90
22908;DHT22;11620;50.050;8.690;2023-03-01T04:39:12;-1.20;99.90
22908;DHT22;11620;50.050;8.690;2023-03-01T04:41:58;-1.10;99.90
22908;DHT22;11620;50.050;8.690;2023-03-01T04:44:45;-1.20;99.90
22908;DHT22;11620;50.050;8.690;2023-03-01T04:47:31;-1.20;99.90
22908;DHT22;11620;50.050;8.690;2023-03-01T04:50:18;-1.20;99.90
22908;DHT22;11620;50.050;8.690;2023-03-01T04:53:09;-1.20;99.90
22908;DHT22;11620;50.050;8.690;2023-03-01T04:55:56;-1.20;99.90
22908;DHT22;11620;50.050;8.690;2023-03-01T04:58:42;-1.10;99.90
22908;DHT22;11620;50.050;8.690;2023-03-01T05:01:29;-1.10;99.90
22908;DHT22;11620;50.050;8.690;2023-03-01T05:04:15;-1.10;99.90
22908;DHT22;11620;50.050;8.690;2023-03-01T05:07:01;-1.10;99.90
22908;DHT22;11620;50.050;8.690;2023-03-01T05:09:48;-1.10;99.90
22908;DHT22;11620;50.050;8.690;2023-03-01T05:12:34;-1.10;99.90
22908;DHT22;11620;50.050;8.690;2023-03-01T05:15:27;-1.10;99.90
22908;DHT22;11620;50.050;8.690;2023-03-01T05:18:14;-1.20;99.90
22908;DHT22;11620;50.050;8.690;2023-03-01T05:21:09;-1.20;99.90
22908;DHT22;11620;50.050;8.690;2023-03-01T05:23:56;-1.20;99.90
22908;DHT22;11620;50.050;8.690;2023-03-01T05:26:42;-1.20;99.90
22908;DHT22;11620;50.050;8.690;2023-03-01T05:29:30;-1.30;99.90
22908;DHT22;11620;50.050;8.690;2023-03-01T05:32:17;-1.30;99.90
22908;DHT22;11620;50.050;8.690;2023-03-01T05:35:03;-1.30;99.90
22908;DHT22;11620;50.050;8.690;2023-03-01T05:37:50;-1.30;99.90
22908;DHT22;11620;50.050;8.690;2023-03-01T05:40:37;-1.30;99.90
22908;DHT22;11620;50.050;8.690;2023-03-01T05:43:23;-1.30;99.90
22908;DHT22;11620;50.050;8.690;2023-03-01T05:46:10;-1.40;99.90
22908;DHT22;11620;50.050;8.690;2023-03-01T05:48:58;-1.40;99.90
22908;DHT22;11620;50.050;8.690;2023-03-01T05:51:48;-1.40;99.90
22908;DHT22;11620;50.050;8.690;2023-03-01T05:54:35;-1.40;99.90
22908;DHT22;11620;50.050;8.690;2023-03-01T05:57:21;-1.40;99.90
22908;DHT22;11620;50.050;8.690;2023-03-01T06:00:09;-1.50;99.90
22908;DHT22;11620;50.050;8.690;2023-03-01T06:02:56;-1.50;99.90
22908;DHT22;11620;50.050;8.690;2023-03-01T06:05:43;-1.50;99.90
22908;DHT22;11620;50.050;8.690;2023-03-01T06:08:30;-1.50;99.90
22908;DHT22;11620;50.050;8.690;2023-03-01T06:11:16;-1.50;99.90
22908;DHT22;11620;50.050;8.690;2023-03-01T06:14:03;-1.50;99.90
22908;DHT22;11620;50.050;8.690;2023-03-01T06:16:50;-1.50;99.90
22908;DHT22;11620;50.050;8.690;2023-03-01T06:19:36;-1.60;99.90
22908;DHT22;11620;50.050;8.690;2023-03-01T06:22:22;-1.60;99.90
22908;DHT22;11620;50.050;8.690;2023-03-01T06:25:10;-1.50;99.90
22908;DHT22;11620;50.050;8.690;2023-03-01T06:27:56;-1.60;99.90
22908;DHT22;11620;50.050;8.690;2023-03-01T06:30:43;-1.50;99.90
22908;DHT22;11620;50.050;8.690;2023-03-01T06:33:29;-1.50;99.90
22908;DHT22;11620;50.050;8.690;2023-03-01T06:36:15;-1.40;99.90
22908;DHT22;11620;50.050;8.690;2023-03-01T06:39:04;-1.30;99.90
22908;DHT22;11620;50.050;8.690;2023-03-01T06:41:51;-1.30;99.90
22908;DHT22;11620;50.050;8.690;2023-03-01T06:44:37;-1.30;99.90
22908;DHT22;11620;50.050;8.690;2023-03-01T06:47:24;-1.30;99.90
22908;DHT22;11620;50.050;8.690;2023-03-01T06:50:11;-1.30;99.90
22908;DHT22;11620;50.050;8.690;2023-03-01T06:52:58;-1.20;99.90
22908;DHT22;11620;50.050;8.690;2023-03-01T06:55:44;-1.30;99.90
22908;DHT22;11620;50.050;8.690;2023-03-01T06:58:30;-1.20;99.90
22908;DHT22;11620;50.050;8.690;2023-03-01T07:01:17;-1.20;99.90
22908;DHT22;11620;50.050;8.690;2023-03-01T07:04:03;-1.10;99.90
22908;DHT22;11620;50.050;8.690;2023-03-01T07:06:49;-1.10;99.90
22908;DHT22;11620;50.050;8.690;2023-03-01T07:09:41;-1.10;99.90
22908;DHT22;11620;50.050;8.690;2023-03-01T07:12:27;-1.00;99.90
22908;DHT22;11620;50.050;8.690;2023-03-01T07:15:13;-1.00;99.90
22908;DHT22;11620;50.050;8.690;2023-03-01T07:18:01;-0.90;99.90
22908;DHT22;11620;50.050;8.690;2023-03-01T07:20:47;-0.90;99.90
22908;DHT22;11620;50.050;8.690;2023-03-01T07:23:34;-0.80;99.90
22908;DHT22;11620;50.050;8.690;2023-03-01T07:26:20;-0.80;99.90
22908;DHT22;11620;50.050;8.690;2023-03-01T07:29:09;-0.80;99.90
22908;DHT22;11620;50.050;8.690;2023-03-01T07:31:55;-0.90;99.90
22908;DHT22;11620;50.050;8.690;2023-03-01T07:34:41;-0.90;99.90
22908;DHT22;11620;50.050;8.690;2023-03-01T07:37:28;-0.80;99.90
22908;DHT22;11620;50.050;8.690;2023-03-01T07:40:14;-0.80;99.90
22908;DHT22;11620;50.050;8.690;2023-03-01T07:43:01;-0.70;99.90
22908;DHT22;11620;50.050;8.690;2023-03-01T07:45:47;-0.60;99.90
22908;DHT22;11620;50.050;8.690;2023-03-01T07:48:33;-0.40;99.90
22908;DHT22;11620;50.050;8.690;2023-03-01T07:51:20;-0.20;99.90
22908;DHT22;11620;50.050;8.690;2023-03-01T07:54:06;0.00;99.90
22908;DHT22;11620;50.050;8.690;2023-03-01T07:56:53;0.20;99.90
22908;DHT22;11620;50.050;8.690;2023-03-01T07:59:40;0.30;99.90
22908;DHT22;11620;50.050;8.690;2023-03-01T08:02:27;0.60;99.90
22908;DHT22;11620;50.050;8.690;2023-03-01T08:05:13;0.70;99.90
22908;DHT22;11620;50.050;8.690;2023-03-01T08:07:59;0.90;99.90
22908;DHT22;11620;50.050;8.690;2023-03-01T08:10:46;1.00;99.90
22908;DHT22;11620;50.050;8.690;2023-03-01T08:13:32;1.10;99.90
22908;DHT22;11620;50.050;8.690;2023-03-01T08:16:19;1.40;99.90
22908;DHT22;11620;50.050;8.690;2023-03-01T08:19:09;1.50;99.90
22908;DHT22;11620;50.050;8.690;2023-03-01T08:21:56;1.70;99.90
22908;DHT22;11620;50.050;8.690;2023-03-01T08:24:44;1.80;99.90
22908;DHT22;11620;50.050;8.690;2023-03-01T08:27:30;2.10;99.90
22908;DHT22;11620;50.050;8.690;2023-03-01T08:30:17;2.20;99.90
22908;DHT22;11620;50.050;8.690;2023-03-01T08:33:03;2.40;99.90
22908;DHT22;11620;50.050;8.690;2023-03-01T08:35:49;2.50;99.90
22908;DHT22;11620;50.050;8.690;2023-03-01T08:38:36;2.60;99.90
22908;DHT22;11620;50.050;8.690;2023-03-01T08:41:23;2.70;99.90
22908;DHT22;11620;50.050;8.690;2023-03-01T08:44:11;3.00;99.90
22908;DHT22;11620;50.050;8.690;2023-03-01T08:46:57;3.10;99.90
22908;DHT22;11620;50.050;8.690;2023-03-01T08:49:44;3.20;99.90
22908;DHT22;11620;50.050;8.690;2023-03-01T08:52:32;3.40;99.90
22908;DHT22;11620;50.050;8.690;2023-03-01T08:55:18;3.70;99.90
22908;DHT22;11620;50.050;8.690;2023-03-01T08:58:05;3.80;99.90
22908;DHT22;11620;50.050;8.690;2023-03-01T09:00:51;4.00;99.90
22908;DHT22;11620;50.050;8.690;2023-03-01T09:03:38;4.20;99.90
22908;DHT22;11620;50.050;8.690;2023-03-01T09:06:25;4.20;99.90
22908;DHT22;11620;50.050;8.690;2023-03-01T09:09:16;4.30;99.90
22908;DHT22;11620;50.050;8.690;2023-03-01T09:12:03;4.40;99.90
22908;DHT22;11620;50.050;8.690;2023-03-01T09:14:50;4.40;99.90
22908;DHT22;11620;50.050;8.690;2023-03-01T09:17:36;4.50;99.90
22908;DHT22;11620;50.050;8.690;2023-03-01T09:20:23;4.80;99.90
22908;DHT22;11620;50.050;8.690;2023-03-01T09:23:09;4.90;99.90
22908;DHT22;11620;50.050;8.690;2023-03-01T09:25:55;4.90;99.90
22908;DHT22;11620;50.050;8.690;2023-03-01T09:28:42;5.10;99.90
22908;DHT22;11620;50.050;8.690;2023-03-01T09:31:30;5.30;99.90
22908;DHT22;11620;50.050;8.690;2023-03-01T09:34:16;5.50;99.90
22908;DHT22;11620;50.050;8.690;2023-03-01T09:37:09;5.70;99.90
22908;DHT22;11620;50.050;8.690;2023-03-01T09:39:55;5.80;99.90
22908;DHT22;11620;50.050;8.690;2023-03-01T09:42:55;6.00;99.90
22908;DHT22;11620;50.050;8.690;2023-03-01T09:45:46;6.10;99.90
22908;DHT22;11620;50.050;8.690;2023-03-01T09:48:39;6.20;99.90
22908;DHT22;11620;50.050;8.690;2023-03-01T09:51:31;6.40;99.90
22908;DHT22;11620;50.050;8.690;2023-03-01T09:54:18;6.20;99.90
22908;DHT22;11620;50.050;8.690;2023-03-01T09:59:56;6.60;99.90
22908;DHT22;11620;50.050;8.690;2023-03-01T10:02:51;6.90;99.90
22908;DHT22;11620;50.050;8.690;2023-03-01T10:09:04;7.30;99.90
22908;DHT22;11620;50.050;8.690;2023-03-01T10:11:54;7.40;99.90
22908;DHT22;11620;50.050;8.690;2023-03-01T10:14:53;7.50;99.90
22908;DHT22;11620;50.050;8.690;2023-03-01T10:20:58;7.70;99.90
22908;DHT22;11620;50.050;8.690;2023-03-01T10:23:46;7.80;99.90
22908;DHT22;11620;50.050;8.690;2023-03-01T10:32:49;8.10;99.90
22908;DHT22;11620;50.050;8.690;2023-03-01T10:35:38;8.20;99.90
22908;DHT22;11620;50.050;8.690;2023-03-01T10:38:30;8.30;99.90
22908;DHT22;11620;50.050;8.690;2023-03-01T10:41:17;8.50;99.90
22908;DHT22;11620;50.050;8.690;2023-03-01T10:44:03;8.50;99.90
22908;DHT22;11620;50.050;8.690;2023-03-01T10:47:00;8.50;99.90
22908;DHT22;11620;50.050;8.690;2023-03-01T10:50:05;8.40;99.90
22908;DHT22;11620;50.050;8.690;2023-03-01T10:53:02;8.50;99.90
22908;DHT22;11620;50.050;8.690;2023-03-01T10:56:00;8.70;99.90
22908;DHT22;11620;50.050;8.690;2023-03-01T10:58:58;8.80;99.90
22908;DHT22;11620;50.050;8.690;2023-03-01T11:01:45;9.10;99.90
22908;DHT22;11620;50.050;8.690;2023-03-01T11:04:31;9.30;99.90
22908;DHT22;11620;50.050;8.690;2023-03-01T11:07:18;9.30;99.90
22908;DHT22;11620;50.050;8.690;2023-03-01T11:10:11;9.50;99.90
22908;DHT22;11620;50.050;8.690;2023-03-01T11:13:18;9.50;99.90
22908;DHT22;11620;50.050;8.690;2023-03-01T11:16:10;9.60;99.90
22908;DHT22;11620;50.050;8.690;2023-03-01T11:24:53;9.90;99.90
22908;DHT22;11620;50.050;8.690;2023-03-01T11:27:43;10.00;99.90
22908;DHT22;11620;50.050;8.690;2023-03-01T11:30:37;10.30;99.90
22908;DHT22;11620;50.050;8.690;2023-03-01T11:36:52;10.20;99.90
22908;DHT22;11620;50.050;8.690;2023-03-01T11:39:46;10.20;99.90
22908;DHT22;11620;50.050;8.690;2023-03-01T11:55:31;10.70;99.90
22908;DHT22;11620;50.050;8.690;2023-03-01T12:19:51;11.30;99.90
22908;DHT22;11620;50.050;8.690;2023-03-01T12:32:20;11.30;99.90
22908;DHT22;11620;50.050;8.690;2023-03-01T12:47:29;11.20;99.90
22908;DHT22;11620;50.050;8.690;2023-03-01T12:53:04;11.10;99.60
22908;DHT22;11620;50.050;8.690;2023-03-01T12:55:53;11.00;99.90
22908;DHT22;11620;50.050;8.690;2023-03-01T13:07:37;11.50;99.90
22908;DHT22;11620;50.050;8.690;2023-03-01T13:10:34;11.60;99.90
22908;DHT22;11620;50.050;8.690;2023-03-01T13:13:26;11.50;99.40
22908;DHT22;11620;50.050;8.690;2023-03-01T13:16:39;11.40;99.90
22908;DHT22;11620;50.050;8.690;2023-03-01T13:19:27;11.40;99.90
22908;DHT22;11620;50.050;8.690;2023-03-01T13:22:30;11.30;99.90
22908;DHT22;11620;50.050;8.690;2023-03-01T13:25:19;11.20;99.20
22908;DHT22;11620;50.050;8.690;2023-03-01T13:37:29;11.00;98.80
22908;DHT22;11620;50.050;8.690;2023-03-01T13:43:31;10.80;98.70
22908;DHT22;11620;50.050;8.690;2023-03-01T13:46:20;11.00;98.60
22908;DHT22;11620;50.050;8.690;2023-03-01T13:49:13;10.90;98.60
22908;DHT22;11620;50.050;8.690;2023-03-01T13:52:02;10.80;98.30
22908;DHT22;11620;50.050;8.690;2023-03-01T13:54:48;10.90;98.90
22908;DHT22;11620;50.050;8.690;2023-03-01T13:57:36;10.90;98.60
22908;DHT22;11620;50.050;8.690;2023-03-01T14:03:20;11.10;99.70
22908;DHT22;11620;50.050;8.690;2023-03-01T14:06:15;11.00;99.70
22908;DHT22;11620;50.050;8.690;2023-03-01T14:09:22;11.10;99.40
22908;DHT22;11620;50.050;8.690;2023-03-01T14:15:18;10.90;99.70
22908;DHT22;11620;50.050;8.690;2023-03-01T14:21:08;10.60;98.90
22908;DHT22;11620;50.050;8.690;2023-03-01T14:23:54;10.70;98.50
22908;DHT22;11620;50.050;8.690;2023-03-01T14:26:41;10.60;98.10
22908;DHT22;11620;50.050;8.690;2023-03-01T14:29:34;10.30;97.90
22908;DHT22;11620;50.050;8.690;2023-03-01T14:32:25;10.30;98.20
22908;DHT22;11620;50.050;8.690;2023-03-01T14:35:21;10.20;97.80
22908;DHT22;11620;50.050;8.690;2023-03-01T14:38:27;10.20;98.10
22908;DHT22;11620;50.050;8.690;2023-03-01T14:41:24;10.30;98.20
22908;DHT22;11620;50.050;8.690;2023-03-01T14:44:21;10.40;98.20
22908;DHT22;11620;50.050;8.690;2023-03-01T14:47:15;10.40;98.40
22908;DHT22;11620;50.050;8.690;2023-03-01T14:50:30;10.20;98.00
22908;DHT22;11620;50.050;8.690;2023-03-01T14:53:26;10.00;98.40
22908;DHT22;11620;50.050;8.690;2023-03-01T14:56:14;9.90;98.70
22908;DHT22;11620;50.050;8.690;2023-03-01T14:59:03;9.70;98.90
22908;DHT22;11620;50.050;8.690;2023-03-01T15:01:51;9.70;98.90
22908;DHT22;11620;50.050;8.690;2023-03-01T15:04:40;9.50;99.00
22908;DHT22;11620;50.050;8.690;2023-03-01T15:07:34;9.40;99.00
22908;DHT22;11620;50.050;8.690;2023-03-01T15:10:26;9.40;99.10
22908;DHT22;11620;50.050;8.690;2023-03-01T15:13:23;9.40;98.70
22908;DHT22;11620;50.050;8.690;2023-03-01T15:16:13;9.30;99.50
22908;DHT22;11620;50.050;8.690;2023-03-01T15:19:05;9.10;99.60
22908;DHT22;11620;50.050;8.690;2023-03-01T15:21:51;8.90;99.50
22908;DHT22;11620;50.050;8.690;2023-03-01T15:24:38;9.00;99.90
22908;DHT22;11620;50.050;8.690;2023-03-01T15:27:25;9.00;99.90
22908;DHT22;11620;50.050;8.690;2023-03-01T15:30:24;8.90;99.90
22908;DHT22;11620;50.050;8.690;2023-03-01T15:36:45;8.60;99.90
22908;DHT22;11620;50.050;8.690;2023-03-01T15:39:41;8.40;99.90
22908;DHT22;11620;50.050;8.690;2023-03-01T15:48:05;8.10;99.90
22908;DHT22;11620;50.050;8.690;2023-03-01T15:51:00;7.90;99.90
22908;DHT22;11620;50.050;8.690;2023-03-01T15:53:52;7.80;99.90
22908;DHT22;11620;50.050;8.690;2023-03-01T15:56:39;7.70;99.90
22908;DHT22;11620;50.050;8.690;2023-03-01T15:59:25;7.70;99.90
22908;DHT22;11620;50.050;8.690;2023-03-01T16:02:12;7.70;99.90
22908;DHT22;11620;50.050;8.690;2023-03-01T16:04:59;7.60;99.90
22908;DHT22;11620;50.050;8.690;2023-03-01T16:07:45;7.50;99.90
22908;DHT22;11620;50.050;8.690;2023-03-01T16:10:32;7.50;99.90
22908;DHT22;11620;50.050;8.690;2023-03-01T16:13:19;7.40;99.90
22908;DHT22;11620;50.050;8.690;2023-03-01T16:16:05;7.30;99.90
22908;DHT22;11620;50.050;8.690;2023-03-01T16:18:52;7.30;99.90
22908;DHT22;11620;50.050;8.690;2023-03-01T16:21:38;7.30;99.90
22908;DHT22;11620;50.050;8.690;2023-03-01T16:24:25;7.20;99.90
22908;DHT22;11620;50.050;8.690;2023-03-01T16:27:12;7.20;99.90
22908;DHT22;11620;50.050;8.690;2023-03-01T16:29:58;7.10;99.90
22908;DHT22;11620;50.050;8.690;2023-03-01T16:32:46;7.00;99.90
22908;DHT22;11620;50.050;8.690;2023-03-01T16:35:33;7.00;99.90
22908;DHT22;11620;50.050;8.690;2023-03-01T16:38:19;6.90;99.90
22908;DHT22;11620;50.050;8.690;2023-03-01T16:40:51;6.80;99.90
22908;DHT22;11620;50.050;8.690;2023-03-01T16:43:35;6.70;99.90
22908;DHT22;11620;50.050;8.690;2023-03-01T16:46:24;6.70;99.90
22908;DHT22;11620;50.050;8.690;2023-03-01T16:49:11;6.60;99.90
22908;DHT22;11620;50.050;8.690;2023-03-01T16:51:57;6.50;99.90
22908;DHT22;11620;50.050;8.690;2023-03-01T16:54:45;6.40;99.90
22908;DHT22;11620;50.050;8.690;2023-03-01T16:57:33;6.30;99.90
22908;DHT22;11620;50.050;8.690;2023-03-01T17:00:20;6.20;99.90
22908;DHT22;11620;50.050;8.690;2023-03-01T17:03:07;6.10;99.90
22908;DHT22;11620;50.050;8.690;2023-03-01T17:05:53;5.90;99.90
22908;DHT22;11620;50.050;8.690;2023-03-01T17:08:39;5.80;99.90
22908;DHT22;11620;50.050;8.690;2023-03-01T17:11:27;5.80;99.90
22908;DHT22;11620;50.050;8.690;2023-03-01T17:14:13;5.80;99.90
22908;DHT22;11620;50.050;8.690;2023-03-01T17:17:01;5.70;99.90
22908;DHT22;11620;50.050;8.690;2023-03-01T17:19:48;5.70;99.90
22908;DHT22;11620;50.050;8.690;2023-03-01T17:22:34;5.70;99.90
22908;DHT22;11620;50.050;8.690;2023-03-01T17:25:21;5.60;99.90
22908;DHT22;11620;50.050;8.690;2023-03-01T17:28:07;5.70;99.90
22908;DHT22;11620;50.050;8.690;2023-03-01T17:30:54;5.60;99.90
22908;DHT22;11620;50.050;8.690;2023-03-01T17:33:41;5.50;99.90
22908;DHT22;11620;50.050;8.690;2023-03-01T17:36:27;5.50;99.90
22908;DHT22;11620;50.050;8.690;2023-03-01T17:39:13;5.30;99.90
22908;DHT22;11620;50.050;8.690;2023-03-01T17:42:00;5.30;99.90
22908;DHT22;11620;50.050;8.690;2023-03-01T17:44:46;5.30;99.90
22908;DHT22;11620;50.050;8.690;2023-03-01T17:47:33;5.30;99.90
22908;DHT22;11620;50.050;8.690;2023-03-01T17:50:19;5.20;99.90
22908;DHT22;11620;50.050;8.690;2023-03-01T17:53:09;5.20;99.90
22908;DHT22;11620;50.050;8.690;2023-03-01T17:56:00;5.10;99.90
22908;DHT22;11620;50.050;8.690;2023-03-01T17:58:46;4.90;99.90
22908;DHT22;11620;50.050;8.690;2023-03-01T18:01:33;4.80;99.90
22908;DHT22;11620;50.050;8.690;2023-03-01T18:04:21;4.70;99.90
22908;DHT22;11620;50.050;8.690;2023-03-01T18:07:07;4.60;99.90
22908;DHT22;11620;50.050;8.690;2023-03-01T18:09:54;4.60;99.90
22908;DHT22;11620;50.050;8.690;2023-03-01T18:12:41;4.50;99.90
22908;DHT22;11620;50.050;8.690;2023-03-01T18:15:27;4.50;99.90
22908;DHT22;11620;50.050;8.690;2023-03-01T18:18:14;4.50;99.90
22908;DHT22;11620;50.050;8.690;2023-03-01T18:21:01;4.40;99.90
22908;DHT22;11620;50.050;8.690;2023-03-01T18:23:48;4.40;99.90
22908;DHT22;11620;50.050;8.690;2023-03-01T18:26:34;4.40;99.90
22908;DHT22;11620;50.050;8.690;2023-03-01T18:29:21;4.30;99.90
22908;DHT22;11620;50.050;8.690;2023-03-01T18:32:07;4.30;99.90
22908;DHT22;11620;50.050;8.690;2023-03-01T18:34:53;4.20;99.90
22908;DHT22;11620;50.050;8.690;2023-03-01T18:37:40;4.20;99.90
22908;DHT22;11620;50.050;8.690;2023-03-01T18:40:28;4.20;99.90
22908;DHT22;11620;50.050;8.690;2023-03-01T18:43:14;4.20;99.90
22908;DHT22;11620;50.050;8.690;2023-03-01T18:46:01;4.10;99.90
22908;DHT22;11620;50.050;8.690;2023-03-01T18:48:51;4.00;99.90
22908;DHT22;11620;50.050;8.690;2023-03-01T18:51:39;3.90;99.90
22908;DHT22;11620;50.050;8.690;2023-03-01T18:54:25;3.90;99.90
22908;DHT22;11620;50.050;8.690;2023-03-01T18:57:11;3.80;99.90
22908;DHT22;11620;50.050;8.690;2023-03-01T18:59:58;3.80;99.90
22908;DHT22;11620;50.050;8.690;2023-03-01T19:02:44;3.80;99.90
22908;DHT22;11620;50.050;8.690;2023-03-01T19:05:31;3.70;99.90
22908;DHT22;11620;50.050;8.690;2023-03-01T19:08:17;3.80;99.90
22908;DHT22;11620;50.050;8.690;2023-03-01T19:11:04;3.80;99.90
22908;DHT22;11620;50.050;8.690;2023-03-01T19:13:51;3.80;99.90
22908;DHT22;11620;50.050;8.690;2023-03-01T19:16:39;3.70;99.90
22908;DHT22;11620;50.050;8.690;2023-03-01T19:19:25;3.70;99.90
22908;DHT22;11620;50.050;8.690;2023-03-01T19:22:11;3.70;99.90
22908;DHT22;11620;50.050;8.690;2023-03-01T19:24:58;3.70;99.90
22908;DHT22;11620;50.050;8.690;2023-03-01T19:27:44;3.70;99.90
22908;DHT22;11620;50.050;8.690;2023-03-01T19:30:30;3.60;99.90
22908;DHT22;11620;50.050;8.690;2023-03-01T19:33:16;3.60;99.90
22908;DHT22;11620;50.050;8.690;2023-03-01T19:36:03;3.50;99.90
22908;DHT22;11620;50.050;8.690;2023-03-01T19:38:49;3.40;99.90
22908;DHT22;11620;50.050;8.690;2023-03-01T19:41:36;3.40;99.90
22908;DHT22;11620;50.050;8.690;2023-03-01T19:44:22;3.40;99.90
22908;DHT22;11620;50.050;8.690;2023-03-01T19:47:10;3.40;99.90
22908;DHT22;11620;50.050;8.690;2023-03-01T19:49:57;3.40;99.90
22908;DHT22;11620;50.050;8.690;2023-03-01T19:52:43;3.40;99.90
22908;DHT22;11620;50.050;8.690;2023-03-01T19:55:29;3.30;99.90